Time;durP1;ratioP1;P1;durP2;ratioP2;P2;SDS_P1;SDS_P2;PMS_P1;PMS_P2;Temp;Humidity;BMP_temperature;BMP_pressure;BME280_temperature;BME280_humidity;BME280_pressure;Samples;Min_cycle;Max_cycle;Signal;HPM_P1;HPM_P2
2024/02/13 00:01:51;;;;;;;;;;;18.70;64.60;;;;;;5018679;28;1334;-68
2024/02/13 00:04:20;;;;;;;;;;;18.70;64.60;;;;;;5016579;28;1613;-70
2024/02/13 00:06:45;;;;;;;;;;;18.70;64.60;;;;;;5019567;28;1782;-68
2024/02/13 00:09:11;;;;;;;;;;;18.60;64.60;;;;;;5017795;28;1442;-68
2024/02/13 00:11:36;;;;;;;;;;;18.60;64.70;;;;;;5018441;28;1432;-67
2024/02/13 00:14:02;;;;;;;;;;;18.60;64.70;;;;;;5018798;28;1448;-68
2024/02/13 00:16:28;;;;;;;;;;;18.60;64.70;;;;;;5016247;28;1744;-68
2024/02/13 00:18:53;;;;;;;;;;;18.60;64.80;;;;;;5019066;28;1591;-68
2024/02/13 00:21:19;;;;;;;;;;;18.60;64.80;;;;;;5023912;28;1910;-68
2024/02/13 00:23:45;;;;;;;;;;;18.60;64.80;;;;;;5022207;28;1549;-68
2024/02/13 00:26:11;;;;;;;;;;;18.60;64.80;;;;;;5021331;28;1430;-68
2024/02/13 00:28:39;;;;;;;;;;;18.60;64.90;;;;;;5022245;28;1477;-69
2024/02/13 00:31:05;;;;;;;;;;;18.60;64.90;;;;;;5023984;28;1014;-69
2024/02/13 00:33:30;;;;;;;;;;;18.50;64.90;;;;;;5022724;28;1378;-68
2024/02/13 00:35:56;;;;;;;;;;;18.50;64.90;;;;;;5022364;28;1502;-68
2024/02/13 00:38:22;;;;;;;;;;;18.50;65.00;;;;;;5024412;28;1566;-68
2024/02/13 00:40:47;;;;;;;;;;;18.50;65.00;;;;;;5020962;28;1898;-68
2024/02/13 00:43:17;;;;;;;;;;;18.50;65.00;;;;;;5022737;28;915;-68
2024/02/13 00:45:43;;;;;;;;;;;18.50;65.10;;;;;;5021479;28;965;-67
2024/02/13 00:48:08;;;;;;;;;;;18.50;65.10;;;;;;5021876;28;1087;-67
2024/02/13 00:50:35;;;;;;;;;;;18.50;65.10;;;;;;5020415;28;1272;-67
2024/02/13 00:53:01;;;;;;;;;;;18.50;65.20;;;;;;5021889;28;1324;-67
2024/02/13 00:55:27;;;;;;;;;;;18.50;65.20;;;;;;5022944;28;1442;-67
2024/02/13 00:57:52;;;;;;;;;;;18.50;65.20;;;;;;5024144;28;1404;-67
2024/02/13 01:00:18;;;;;;;;;;;18.40;65.20;;;;;;5021988;28;1969;-67
2024/02/13 01:02:44;;;;;;;;;;;18.40;65.20;;;;;;5020790;28;1240;-67
2024/02/13 01:05:09;;;;;;;;;;;18.40;65.20;;;;;;5020166;28;1500;-67
2024/02/13 01:07:35;;;;;;;;;;;18.40;65.20;;;;;;5019350;28;1454;-66
2024/02/13 01:10:01;;;;;;;;;;;18.40;65.30;;;;;;5019367;28;1329;-67
2024/02/13 01:12:26;;;;;;;;;;;18.40;65.30;;;;;;5021437;28;1616;-68
2024/02/13 01:14:54;;;;;;;;;;;18.40;65.30;;;;;;5022580;28;1240;-70
2024/02/13 01:17:19;;;;;;;;;;;18.40;65.40;;;;;;5020221;28;1420;-69
2024/02/13 01:19:47;;;;;;;;;;;18.40;65.40;;;;;;5021234;28;1903;-69
2024/02/13 01:22:12;;;;;;;;;;;18.40;65.40;;;;;;5017764;28;1452;-69
2024/02/13 01:24:38;;;;;;;;;;;18.40;65.40;;;;;;5022633;28;1187;-68
2024/02/13 01:27:04;;;;;;;;;;;18.40;65.50;;;;;;5021163;28;1345;-69
2024/02/13 01:29:29;;;;;;;;;;;18.30;65.50;;;;;;5021941;28;1347;-68
2024/02/13 01:31:54;;;;;;;;;;;18.40;65.50;;;;;;5021052;28;1590;-68
2024/02/13 01:34:20;;;;;;;;;;;18.30;65.50;;;;;;5020566;28;1288;-68
2024/02/13 01:36:45;;;;;;;;;;;18.30;65.50;;;;;;5021767;28;1661;-69
2024/02/13 01:39:11;;;;;;;;;;;18.40;65.60;;;;;;5019272;28;1470;-68
2024/02/13 01:41:37;;;;;;;;;;;18.30;65.60;;;;;;5021975;28;1899;-68
2024/02/13 01:44:03;;;;;;;;;;;18.30;66.40;;;;;;5018766;28;1321;-68
2024/02/13 01:46:29;;;;;;;;;;;18.30;65.60;;;;;;5019239;28;1563;-68
2024/02/13 01:48:58;;;;;;;;;;;18.30;65.60;;;;;;5018148;28;1339;-69
2024/02/13 01:51:27;;;;;;;;;;;18.30;65.60;;;;;;5020820;28;1270;-70
2024/02/13 01:53:53;;;;;;;;;;;18.30;65.70;;;;;;5019783;28;1252;-67
2024/02/13 01:56:20;;;;;;;;;;;18.30;65.70;;;;;;5018323;28;1357;-67
2024/02/13 01:58:46;;;;;;;;;;;18.30;65.70;;;;;;5019018;28;1419;-67
2024/02/13 02:01:11;;;;;;;;;;;18.30;65.70;;;;;;5019898;28;1910;-68
2024/02/13 02:03:37;;;;;;;;;;;18.20;65.70;;;;;;5021141;28;1579;-68
2024/02/13 02:06:05;;;;;;;;;;;18.20;65.70;;;;;;5027727;28;1316;-68
2024/02/13 02:08:31;;;;;;;;;;;18.20;65.80;;;;;;5021398;28;1390;-68
2024/02/13 02:10:57;;;;;;;;;;;18.20;65.80;;;;;;5020531;28;1503;-68
2024/02/13 02:13:24;;;;;;;;;;;18.30;65.80;;;;;;5019355;28;1519;-68
2024/02/13 02:15:49;;;;;;;;;;;18.30;65.90;;;;;;5020412;28;1433;-68
2024/02/13 02:18:15;;;;;;;;;;;18.20;65.80;;;;;;5019284;28;1300;-68
2024/02/13 02:20:40;;;;;;;;;;;18.20;65.80;;;;;;5020160;28;1906;-68
2024/02/13 02:23:07;;;;;;;;;;;18.20;65.80;;;;;;5018947;28;1620;-68
2024/02/13 02:25:35;;;;;;;;;;;18.20;65.90;;;;;;5019853;28;1440;-68
2024/02/13 02:28:00;;;;;;;;;;;18.20;65.90;;;;;;5020156;28;1328;-68
2024/02/13 02:30:26;;;;;;;;;;;18.20;65.90;;;;;;5020118;28;1314;-68
2024/02/13 02:32:51;;;;;;;;;;;18.20;65.90;;;;;;5018820;28;1806;-67
2024/02/13 02:35:16;;;;;;;;;;;18.20;65.90;;;;;;5018087;28;1437;-68
2024/02/13 02:37:46;;;;;;;;;;;18.20;65.90;;;;;;5027440;28;1490;-67
2024/02/13 02:40:12;;;;;;;;;;;18.20;65.90;;;;;;5017156;28;1946;-67
2024/02/13 02:42:37;;;;;;;;;;;18.20;66.00;;;;;;5016895;28;1485;-67
2024/02/13 02:45:06;;;;;;;;;;;18.20;65.90;;;;;;5017895;28;1287;-68
2024/02/13 02:47:32;;;;;;;;;;;18.20;66.00;;;;;;5019014;28;1588;-67
2024/02/13 02:49:57;;;;;;;;;;;18.20;66.00;;;;;;5015212;28;1375;-67
2024/02/13 02:52:24;;;;;;;;;;;18.20;66.00;;;;;;5018337;28;971;-67
2024/02/13 02:54:50;;;;;;;;;;;18.20;66.00;;;;;;5018374;28;1185;-67
2024/02/13 02:57:15;;;;;;;;;;;18.20;66.00;;;;;;5016318;28;1542;-68
2024/02/13 02:59:41;;;;;;;;;;;18.10;66.00;;;;;;5019799;28;1973;-68
2024/02/13 03:02:08;;;;;;;;;;;18.20;66.00;;;;;;5018371;28;1397;-68
2024/02/13 03:04:35;;;;;;;;;;;18.20;66.80;;;;;;5021144;28;1328;-69
2024/02/13 03:07:00;;;;;;;;;;;18.20;66.10;;;;;;5021264;28;1246;-69
2024/02/13 03:09:26;;;;;;;;;;;18.20;66.10;;;;;;5016621;28;1493;-68
2024/02/13 03:11:51;;;;;;;;;;;18.10;66.00;;;;;;5019393;28;1768;-68
2024/02/13 03:14:17;;;;;;;;;;;18.10;66.10;;;;;;5016544;28;1237;-68
2024/02/13 03:16:45;;;;;;;;;;;18.10;66.00;;;;;;5022737;28;1227;-68
2024/02/13 03:19:10;;;;;;;;;;;18.10;66.10;;;;;;5017915;28;1394;-67
2024/02/13 03:21:35;;;;;;;;;;;18.10;66.10;;;;;;5020969;28;1965;-67
2024/02/13 03:24:01;;;;;;;;;;;18.10;66.10;;;;;;5018015;28;1434;-67
2024/02/13 03:26:26;;;;;;;;;;;18.10;66.10;;;;;;5015904;28;1140;-67
2024/02/13 03:28:52;;;;;;;;;;;18.10;66.10;;;;;;5018620;28;1442;-67
2024/02/13 03:31:18;;;;;;;;;;;18.10;66.10;;;;;;5017641;28;1204;-67
2024/02/13 03:33:43;;;;;;;;;;;18.10;66.10;;;;;;5019602;28;936;-67
2024/02/13 03:36:10;;;;;;;;;;;18.10;66.10;;;;;;5017867;28;1052;-68
2024/02/13 03:38:35;;;;;;;;;;;18.10;66.20;;;;;;5018293;28;1523;-68
2024/02/13 03:41:02;;;;;;;;;;;18.10;66.20;;;;;;5019659;28;1902;-68
2024/02/13 03:43:27;;;;;;;;;;;18.10;66.10;;;;;;5020568;28;1469;-67
2024/02/13 03:45:53;;;;;;;;;;;18.10;66.20;;;;;;5019148;28;1586;-68
2024/02/13 03:48:18;;;;;;;;;;;18.10;66.20;;;;;;5019318;28;1455;-68
2024/02/13 03:50:44;;;;;;;;;;;18.10;66.20;;;;;;5019308;28;1262;-68
2024/02/13 03:53:09;;;;;;;;;;;18.10;66.20;;;;;;5007636;28;1393;-67
2024/02/13 03:55:35;;;;;;;;;;;18.10;66.20;;;;;;5021309;28;1480;-68
2024/02/13 03:58:01;;;;;;;;;;;18.10;66.20;;;;;;5022136;28;1431;-68
2024/02/13 04:00:26;;;;;;;;;;;18.10;66.20;;;;;;5022821;28;1934;-68
2024/02/13 04:02:52;;;;;;;;;;;18.10;66.20;;;;;;5022906;28;1674;-68
2024/02/13 04:05:17;;;;;;;;;;;18.10;66.20;;;;;;5021205;28;1612;-68
2024/02/13 04:07:43;;;;;;;;;;;18.10;66.30;;;;;;5022436;28;1452;-68
2024/02/13 04:10:08;;;;;;;;;;;18.00;66.20;;;;;;5021673;28;1574;-68
2024/02/13 04:12:34;;;;;;;;;;;18.00;66.30;;;;;;5006284;28;1518;-68
2024/02/13 04:14:59;;;;;;;;;;;18.10;66.30;;;;;;5021368;28;1244;-68
2024/02/13 04:17:25;;;;;;;;;;;18.10;66.30;;;;;;5022266;28;1475;-67
2024/02/13 04:19:52;;;;;;;;;;;18.00;66.20;;;;;;5023300;28;1891;-68
2024/02/13 04:22:18;;;;;;;;;;;18.00;66.20;;;;;;5020052;28;1446;-68
2024/02/13 04:24:43;;;;;;;;;;;18.00;66.20;;;;;;5020949;28;1371;-67
2024/02/13 04:27:08;;;;;;;;;;;18.00;66.30;;;;;;5021252;28;1110;-68
2024/02/13 04:29:34;;;;;;;;;;;18.00;66.30;;;;;;5021465;28;1568;-68
2024/02/13 04:31:59;;;;;;;;;;;18.00;66.30;;;;;;5020600;28;1539;-68
2024/02/13 04:34:25;;;;;;;;;;;18.00;66.30;;;;;;5022665;28;1565;-67
2024/02/13 04:36:51;;;;;;;;;;;18.00;66.30;;;;;;5021256;28;1854;-68
2024/02/13 04:39:19;;;;;;;;;;;18.00;66.30;;;;;;5029334;28;1290;-67
2024/02/13 04:41:46;;;;;;;;;;;18.00;66.30;;;;;;5019562;28;1353;-68
2024/02/13 04:44:12;;;;;;;;;;;18.00;66.30;;;;;;5022530;28;1488;-67
2024/02/13 04:46:39;;;;;;;;;;;18.00;66.30;;;;;;5024915;28;1187;-68
2024/02/13 04:49:05;;;;;;;;;;;18.00;66.40;;;;;;5022874;28;1456;-67
2024/02/13 04:51:31;;;;;;;;;;;18.00;66.30;;;;;;5021054;28;1412;-67
2024/02/13 04:53:56;;;;;;;;;;;18.00;66.30;;;;;;5020690;28;1355;-68
2024/02/13 04:56:21;;;;;;;;;;;18.00;66.30;;;;;;5017505;28;1332;-68
2024/02/13 04:58:47;;;;;;;;;;;18.00;66.40;;;;;;5023031;28;1580;-68
2024/02/13 05:01:14;;;;;;;;;;;18.00;66.40;;;;;;5020805;28;1910;-68
2024/02/13 05:07:19;;;;;;;;;;;18.00;66.40;;;;;;5018977;28;1584;-68
2024/02/13 05:09:11;;;;;;;;;;;18.00;66.40;;;;;;5020629;28;1280;-68
2024/02/13 05:11:39;;;;;;;;;;;18.00;66.40;;;;;;5019766;28;1274;-66
2024/02/13 05:14:05;;;;;;;;;;;18.00;66.30;;;;;;5021801;28;1476;-65
2024/02/13 05:16:31;;;;;;;;;;;18.00;66.30;;;;;;5021709;28;1148;-68
2024/02/13 05:18:56;;;;;;;;;;;18.10;66.30;;;;;;5022186;28;1351;-67
2024/02/13 05:21:23;;;;;;;;;;;18.10;66.20;;;;;;5024064;28;1909;-65
2024/02/13 05:23:49;;;;;;;;;;;18.10;66.00;;;;;;5026218;28;1143;-66
2024/02/13 05:26:15;;;;;;;;;;;18.10;65.90;;;;;;5021984;28;960;-69
2024/02/13 05:28:41;;;;;;;;;;;18.20;65.90;;;;;;5022188;28;1359;-65
2024/02/13 05:31:07;;;;;;;;;;;18.20;65.80;;;;;;5024265;28;1287;-69
2024/02/13 05:33:32;;;;;;;;;;;18.20;65.60;;;;;;5024291;28;1494;-70
2024/02/13 05:35:58;;;;;;;;;;;18.20;65.60;;;;;;5034339;28;1017;-66
2024/02/13 05:38:23;;;;;;;;;;;18.20;65.50;;;;;;5032774;28;1241;-68
2024/02/13 05:40:49;;;;;;;;;;;18.30;65.40;;;;;;5030804;28;1890;-69
2024/02/13 05:43:14;;;;;;;;;;;18.30;65.30;;;;;;5034576;28;832;-66
2024/02/13 05:45:40;;;;;;;;;;;18.30;65.20;;;;;;5021354;28;781;-66
2024/02/13 05:48:09;;;;;;;;;;;18.30;65.10;;;;;;5026775;28;954;-66
2024/02/13 05:50:35;;;;;;;;;;;18.30;65.10;;;;;;5031544;28;1263;-69
2024/02/13 05:53:01;;;;;;;;;;;18.40;65.10;;;;;;5015815;28;844;-66
2024/02/13 05:55:28;;;;;;;;;;;18.40;65.00;;;;;;5022106;28;1156;-66
2024/02/13 05:57:53;;;;;;;;;;;18.40;65.00;;;;;;5029531;28;864;-68
2024/02/13 06:00:19;;;;;;;;;;;18.40;64.90;;;;;;5034100;28;1894;-66
2024/02/13 06:02:45;;;;;;;;;;;18.40;64.90;;;;;;5025594;28;1517;-66
2024/02/13 06:05:11;;;;;;;;;;;18.40;64.80;;;;;;5020736;28;1491;-68
2024/02/13 06:07:36;;;;;;;;;;;18.40;64.80;;;;;;5020730;28;1526;-66
2024/02/13 06:10:02;;;;;;;;;;;18.40;64.70;;;;;;5017959;28;1292;-67
2024/02/13 06:12:29;;;;;;;;;;;18.40;64.70;;;;;;5020388;28;1312;-69
2024/02/13 06:14:54;;;;;;;;;;;18.40;64.70;;;;;;5020599;28;1791;-66
2024/02/13 06:17:20;;;;;;;;;;;18.40;64.60;;;;;;5019232;28;1440;-67
2024/02/13 06:19:45;;;;;;;;;;;18.50;64.70;;;;;;5019992;28;1903;-67
2024/02/13 06:22:14;;;;;;;;;;;18.50;64.70;;;;;;5016913;28;1435;-67
2024/02/13 06:24:41;;;;;;;;;;;18.50;64.70;;;;;;5019986;28;1258;-67
2024/02/13 06:27:07;;;;;;;;;;;18.50;64.60;;;;;;5020967;28;1519;-69
2024/02/13 06:29:32;;;;;;;;;;;18.50;64.70;;;;;;5018393;28;1587;-69
2024/02/13 06:31:58;;;;;;;;;;;18.50;64.70;;;;;;5016763;28;1698;-67
2024/02/13 06:34:24;;;;;;;;;;;18.50;64.70;;;;;;5016898;28;1495;-67
2024/02/13 06:36:50;;;;;;;;;;;18.50;64.70;;;;;;5018874;28;1185;-67
2024/02/13 06:39:20;;;;;;;;;;;18.50;64.70;;;;;;5011008;28;2072;-70
2024/02/13 06:41:46;;;;;;;;;;;18.50;64.70;;;;;;5021678;28;1902;-67
2024/02/13 06:44:12;;;;;;;;;;;18.50;64.70;;;;;;5022981;28;846;-68
2024/02/13 06:46:37;;;;;;;;;;;18.50;64.70;;;;;;5021382;28;1350;-67
2024/02/13 06:49:03;;;;;;;;;;;18.40;64.70;;;;;;5018502;28;1454;-66
2024/02/13 06:51:29;;;;;;;;;;;18.40;64.60;;;;;;5020034;28;1549;-67
2024/02/13 06:53:55;;;;;;;;;;;18.40;64.70;;;;;;5020022;28;1435;-71
2024/02/13 06:56:20;;;;;;;;;;;18.40;64.70;;;;;;5016715;28;1628;-68
2024/02/13 06:58:45;;;;;;;;;;;18.40;64.70;;;;;;5018153;28;1352;-67
2024/02/13 07:01:12;;;;;;;;;;;18.40;64.70;;;;;;5017060;28;1910;-69
2024/02/13 07:03:38;;;;;;;;;;;18.40;64.70;;;;;;5019119;28;1131;-66
2024/02/13 07:06:04;;;;;;;;;;;18.40;64.70;;;;;;5023265;28;1525;-66
2024/02/13 07:08:30;;;;;;;;;;;18.40;64.70;;;;;;5021500;28;1370;-66
2024/02/13 07:10:56;;;;;;;;;;;18.40;64.80;;;;;;5018893;28;1216;-67
2024/02/13 07:13:22;;;;;;;;;;;18.40;64.80;;;;;;5021017;28;1062;-66
2024/02/13 07:15:48;;;;;;;;;;;18.40;64.80;;;;;;5019516;28;1389;-68
2024/02/13 07:18:13;;;;;;;;;;;18.40;64.80;;;;;;5019197;28;1565;-69
2024/02/13 07:20:39;;;;;;;;;;;18.40;64.80;;;;;;5016567;28;1965;-68
2024/02/13 07:23:04;;;;;;;;;;;18.40;64.90;;;;;;5015703;28;1291;-67
2024/02/13 07:25:30;;;;;;;;;;;18.40;64.90;;;;;;5017529;28;910;-67
2024/02/13 07:27:55;;;;;;;;;;;18.40;64.90;;;;;;5033325;28;1228;-68
2024/02/13 07:30:21;;;;;;;;;;;18.40;64.90;;;;;;5024869;28;1288;-68
2024/02/13 07:32:47;;;;;;;;;;;18.40;64.90;;;;;;5025534;28;1249;-66
2024/02/13 07:35:13;;;;;;;;;;;18.40;65.00;;;;;;5025899;28;1249;-66
2024/02/13 07:37:38;;;;;;;;;;;18.30;64.90;;;;;;5024721;28;1532;-67
2024/02/13 07:40:04;;;;;;;;;;;18.30;64.90;;;;;;5021952;28;1962;-71
2024/02/13 07:42:29;;;;;;;;;;;18.30;65.00;;;;;;5024620;28;914;-67
2024/02/13 07:44:55;;;;;;;;;;;18.30;65.00;;;;;;5026634;28;1730;-65
2024/02/13 07:47:25;;;;;;;;;;;18.30;65.00;;;;;;5023942;28;1393;-68
2024/02/13 07:49:54;;;;;;;;;;;18.30;65.00;;;;;;5024881;28;1384;-67
2024/02/13 07:52:19;;;;;;;;;;;18.30;65.00;;;;;;5024901;28;1459;-67
2024/02/13 07:54:45;;;;;;;;;;;18.30;65.00;;;;;;5035357;28;1379;-68
2024/02/13 07:57:14;;;;;;;;;;;18.30;65.10;;;;;;5025790;28;1544;-68
2024/02/13 07:59:40;;;;;;;;;;;18.30;65.10;;;;;;5024642;28;1902;-69
2024/02/13 08:02:05;;;;;;;;;;;18.30;65.10;;;;;;5024705;28;1644;-70
2024/02/13 08:04:31;;;;;;;;;;;18.30;65.10;;;;;;5025427;28;1088;-69
2024/02/13 08:06:58;;;;;;;;;;;18.30;65.10;;;;;;5026309;28;1776;-69
2024/02/13 08:09:23;;;;;;;;;;;18.30;65.10;;;;;;5023813;28;1434;-70
2024/02/13 08:11:51;;;;;;;;;;;18.30;65.20;;;;;;5022859;28;1572;-70
2024/02/13 08:14:16;;;;;;;;;;;18.30;65.20;;;;;;5024654;28;1599;-70
2024/02/13 08:16:42;;;;;;;;;;;18.30;65.20;;;;;;5024735;28;1376;-69
2024/02/13 08:19:07;;;;;;;;;;;18.30;65.20;;;;;;5025913;28;1333;-69
2024/02/13 08:21:33;;;;;;;;;;;18.20;65.20;;;;;;5023884;28;1993;-68
2024/02/13 08:23:58;;;;;;;;;;;18.20;65.20;;;;;;5023192;28;1280;-70
2024/02/13 08:26:24;;;;;;;;;;;18.20;66.00;;;;;;5025306;28;1329;-69
2024/02/13 08:28:50;;;;;;;;;;;18.20;65.20;;;;;;5023078;28;1946;-70
2024/02/13 08:31:15;;;;;;;;;;;18.30;65.30;;;;;;5025561;28;1478;-69
2024/02/13 08:33:41;;;;;;;;;;;18.20;65.30;;;;;;5022132;28;1552;-70
2024/02/13 08:36:06;;;;;;;;;;;18.30;65.40;;;;;;5024475;28;1457;-73
2024/02/13 08:38:32;;;;;;;;;;;18.20;65.30;;;;;;5018027;28;1335;-71
2024/02/13 08:40:58;;;;;;;;;;;18.20;65.40;;;;;;5023744;28;1922;-70
2024/02/13 08:43:23;;;;;;;;;;;18.20;65.40;;;;;;5020742;28;1251;-72
2024/02/13 08:45:49;;;;;;;;;;;18.20;65.40;;;;;;5022258;28;1497;-72
2024/02/13 08:48:15;;;;;;;;;;;18.20;66.10;;;;;;5023131;28;1620;-72
2024/02/13 08:50:41;;;;;;;;;;;18.20;65.40;;;;;;5021752;28;1417;-71
2024/02/13 08:53:06;;;;;;;;;;;18.20;65.40;;;;;;5020719;28;1536;-70
2024/02/13 08:55:32;;;;;;;;;;;18.20;65.40;;;;;;5024244;28;978;-71
2024/02/13 08:57:57;;;;;;;;;;;18.20;65.40;;;;;;5021154;28;1850;-72
2024/02/13 09:00:23;;;;;;;;;;;18.20;65.40;;;;;;5020837;28;1973;-71
2024/02/13 09:02:48;;;;;;;;;;;18.20;65.40;;;;;;5023513;28;1278;-71
2024/02/13 09:05:14;;;;;;;;;;;18.20;65.40;;;;;;5023476;28;1492;-72
2024/02/13 09:07:41;;;;;;;;;;;18.20;65.40;;;;;;5020800;28;1148;-72
2024/02/13 09:10:07;;;;;;;;;;;18.20;65.30;;;;;;5018965;28;1386;-69
2024/02/13 09:12:32;;;;;;;;;;;18.30;65.30;;;;;;5019570;28;1525;-69
2024/02/13 09:14:58;;;;;;;;;;;18.20;65.20;;;;;;5022852;28;1884;-69
2024/02/13 09:17:24;;;;;;;;;;;18.20;65.20;;;;;;5019672;28;1635;-70
2024/02/13 09:19:49;;;;;;;;;;;18.20;65.10;;;;;;5021085;28;1906;-70
2024/02/13 09:22:15;;;;;;;;;;;18.30;65.20;;;;;;5019512;28;1326;-72
2024/02/13 09:24:45;;;;;;;;;;;18.30;65.10;;;;;;5022864;28;1525;-71
2024/02/13 09:27:11;;;;;;;;;;;18.30;65.10;;;;;;5018338;28;1404;-71
2024/02/13 09:29:38;;;;;;;;;;;18.30;65.10;;;;;;5020409;28;1543;-70
2024/02/13 09:32:04;;;;;;;;;;;18.30;65.00;;;;;;5018334;28;879;-70
2024/02/13 09:34:30;;;;;;;;;;;18.30;65.00;;;;;;5021592;28;1342;-70
2024/02/13 09:36:55;;;;;;;;;;;18.30;64.90;;;;;;5021276;28;1422;-70
2024/02/13 09:39:21;;;;;;;;;;;18.30;64.90;;;;;;5018518;28;1557;-70
2024/02/13 09:41:46;;;;;;;;;;;18.30;64.90;;;;;;5020424;28;1969;-70
2024/02/13 09:44:13;;;;;;;;;;;18.30;64.90;;;;;;5017728;28;1125;-71
2024/02/13 09:46:39;;;;;;;;;;;18.30;64.90;;;;;;5021672;28;1543;-71
2024/02/13 09:49:08;;;;;;;;;;;18.30;64.90;;;;;;5019585;28;1452;-71
2024/02/13 09:51:33;;;;;;;;;;;18.40;64.90;;;;;;5026043;28;1282;-70
2024/02/13 09:54:03;;;;;;;;;;;18.40;64.90;;;;;;5016590;28;2092;-70
2024/02/13 09:56:28;;;;;;;;;;;18.40;64.90;;;;;;5018765;28;1419;-69
2024/02/13 09:58:54;;;;;;;;;;;18.30;64.80;;;;;;5019083;28;2185;-70
2024/02/13 10:01:19;;;;;;;;;;;18.30;64.80;;;;;;5018886;28;1963;-69
2024/02/13 10:03:45;;;;;;;;;;;18.40;64.90;;;;;;5020199;28;1709;-68
2024/02/13 10:06:11;;;;;;;;;;;18.40;64.90;;;;;;5020404;28;1971;-68
2024/02/13 10:08:39;;;;;;;;;;;18.40;64.90;;;;;;5022087;28;1624;-69
2024/02/13 10:11:16;;;;;;;;;;;18.40;64.90;;;;;;5018989;28;1619;-67
2024/02/13 10:13:41;;;;;;;;;;;18.40;64.80;;;;;;5020360;28;1614;-67
2024/02/13 10:16:20;;;;;;;;;;;18.40;64.80;;;;;;5020649;28;1362;-67
2024/02/13 10:18:57;;;;;;;;;;;18.40;64.80;;;;;;5017941;28;1363;-67
2024/02/13 10:21:25;;;;;;;;;;;18.40;65.50;;;;;;5025663;28;1933;-67
2024/02/13 10:23:53;;;;;;;;;;;18.40;64.80;;;;;;5026882;28;1254;-67
2024/02/13 10:26:23;;;;;;;;;;;18.40;64.80;;;;;;5019363;28;1116;-67
2024/02/13 10:28:54;;;;;;;;;;;18.40;64.70;;;;;;5020677;28;1517;-68
2024/02/13 10:31:24;;;;;;;;;;;18.40;64.70;;;;;;5016976;28;1883;-67
2024/02/13 10:33:49;;;;;;;;;;;18.40;64.70;;;;;;5019366;28;1183;-67
2024/02/13 10:36:15;;;;;;;;;;;18.40;64.70;;;;;;5021422;28;1081;-68
2024/02/13 10:38:40;;;;;;;;;;;18.40;64.60;;;;;;5021099;28;1307;-68
2024/02/13 10:41:07;;;;;;;;;;;18.40;64.60;;;;;;5019734;28;1907;-68
2024/02/13 10:43:33;;;;;;;;;;;18.40;64.50;;;;;;5013840;28;872;-68
2024/02/13 10:45:58;;;;;;;;;;;18.40;64.50;;;;;;5020682;28;1387;-68
2024/02/13 10:48:29;;;;;;;;;;;18.40;64.50;;;;;;5022134;28;1419;-68
2024/02/13 10:50:56;;;;;;;;;;;18.40;64.50;;;;;;5018210;28;1362;-69
2024/02/13 10:53:22;;;;;;;;;;;18.50;64.50;;;;;;5021009;28;1444;-68
2024/02/13 10:55:50;;;;;;;;;;;18.50;64.60;;;;;;5019123;28;1322;-67
2024/02/13 10:58:15;;;;;;;;;;;18.50;64.50;;;;;;5019552;28;1383;-67
2024/02/13 11:00:41;;;;;;;;;;;18.50;64.40;;;;;;5019631;28;1973;-66
2024/02/13 11:03:06;;;;;;;;;;;18.50;64.40;;;;;;5024588;28;1276;-63
2024/02/13 11:05:32;;;;;;;;;;;18.50;64.40;;;;;;5018230;28;1361;-65
2024/02/13 11:07:57;;;;;;;;;;;18.50;64.40;;;;;;5019079;28;1541;-70
2024/02/13 11:10:34;;;;;;;;;;;18.50;64.30;;;;;;5018778;28;1440;-65
2024/02/13 11:13:05;;;;;;;;;;;18.50;64.30;;;;;;5025219;28;1493;-68
2024/02/13 11:15:30;;;;;;;;;;;18.50;64.30;;;;;;5010794;28;1481;-69
2024/02/13 11:17:56;;;;;;;;;;;18.50;64.30;;;;;;5021355;28;1312;-69
2024/02/13 11:20:22;;;;;;;;;;;18.50;64.30;;;;;;5018545;28;1902;-68
2024/02/13 11:23:15;;;;;;;;;;;18.50;64.30;;;;;;5019368;28;1337;-68
2024/02/13 11:25:42;;;;;;;;;;;18.50;64.30;;;;;;5018114;28;1217;-68
2024/02/13 11:28:09;;;;;;;;;;;18.50;64.30;;;;;;5018578;28;1222;-68
2024/02/13 11:30:35;;;;;;;;;;;18.50;64.40;;;;;;5016896;28;1370;-68
2024/02/13 11:33:02;;;;;;;;;;;18.50;64.40;;;;;;5021967;28;1795;-69
2024/02/13 11:35:29;;;;;;;;;;;18.50;64.40;;;;;;5024571;28;1295;-69
2024/02/13 11:37:55;;;;;;;;;;;18.50;64.40;;;;;;5018070;28;1298;-68
2024/02/13 11:40:21;;;;;;;;;;;18.40;64.40;;;;;;5019338;28;1902;-70
2024/02/13 11:42:48;;;;;;;;;;;18.40;64.40;;;;;;5017141;28;1490;-70
2024/02/13 11:45:24;;;;;;;;;;;18.40;64.40;;;;;;5018327;28;1418;-68
2024/02/13 11:47:50;;;;;;;;;;;18.40;64.50;;;;;;5002903;28;1584;-67
2024/02/13 11:50:17;;;;;;;;;;;18.40;64.50;;;;;;5018028;28;1464;-68
2024/02/13 11:52:43;;;;;;;;;;;18.40;64.50;;;;;;5018494;28;1765;-67
2024/02/13 11:55:09;;;;;;;;;;;18.40;64.50;;;;;;5016577;28;1522;-68
2024/02/13 11:57:34;;;;;;;;;;;18.40;64.60;;;;;;5003722;28;1829;-67
2024/02/13 12:00:01;;;;;;;;;;;18.40;64.60;;;;;;5018326;28;1981;-67
2024/02/13 12:02:27;;;;;;;;;;;18.40;64.70;;;;;;5014897;28;2277;-69
2024/02/13 12:04:52;;;;;;;;;;;18.40;64.70;;;;;;5017527;28;1397;-69
2024/02/13 12:07:18;;;;;;;;;;;18.40;64.70;;;;;;5015372;28;1498;-66
2024/02/13 12:09:44;;;;;;;;;;;18.40;64.70;;;;;;5017658;28;1635;-67
2024/02/13 12:12:10;;;;;;;;;;;18.40;64.70;;;;;;5017675;28;1223;-68
2024/02/13 12:14:35;;;;;;;;;;;18.40;64.70;;;;;;5022114;28;1164;-68
2024/02/13 12:17:06;;;;;;;;;;;18.40;64.70;;;;;;5022289;28;1540;-68
2024/02/13 12:19:39;;;;;;;;;;;18.40;64.80;;;;;;5019056;28;1383;-67
2024/02/13 12:22:05;;;;;;;;;;;18.40;64.80;;;;;;5019978;28;1162;-67
2024/02/13 12:24:34;;;;;;;;;;;18.40;64.80;;;;;;5020934;28;1609;-69
2024/02/13 12:27:00;;;;;;;;;;;18.40;64.80;;;;;;5021476;28;1617;-71
2024/02/13 12:29:25;;;;;;;;;;;18.40;64.80;;;;;;5020666;28;1330;-71
2024/02/13 12:31:51;;;;;;;;;;;18.40;64.90;;;;;;5008851;28;1289;-69
2024/02/13 12:34:16;;;;;;;;;;;18.40;64.80;;;;;;5022613;28;1559;-67
2024/02/13 12:36:42;;;;;;;;;;;18.30;64.80;;;;;;5030043;28;1496;-67
2024/02/13 12:39:40;;;;;;;;;;;18.40;64.90;;;;;;5018906;28;1509;-69
2024/02/13 12:41:59;;;;;;;;;;;18.30;64.80;;;;;;5023064;28;1945;-68
2024/02/13 12:44:24;;;;;;;;;;;18.30;64.80;;;;;;5018829;28;1676;-68
2024/02/13 12:46:51;;;;;;;;;;;18.30;64.80;;;;;;5020391;28;1462;-68
2024/02/13 12:49:19;;;;;;;;;;;18.30;64.80;;;;;;5020546;28;1375;-69
2024/02/13 12:51:45;;;;;;;;;;;18.30;64.90;;;;;;5018760;28;1410;-67
2024/02/13 12:54:10;;;;;;;;;;;18.30;64.80;;;;;;5023418;28;884;-69
2024/02/13 12:56:40;;;;;;;;;;;18.30;64.90;;;;;;5012270;28;1726;-69
2024/02/13 12:59:08;;;;;;;;;;;18.30;64.90;;;;;;5019014;28;1372;-66
2024/02/13 13:01:37;;;;;;;;;;;18.30;64.90;;;;;;5023954;28;1965;-65
2024/02/13 13:04:04;;;;;;;;;;;18.30;64.90;;;;;;5020180;28;1011;-67
2024/02/13 13:06:33;;;;;;;;;;;18.30;64.90;;;;;;5022297;28;982;-67
2024/02/13 13:09:01;;;;;;;;;;;18.30;64.90;;;;;;5020088;28;1530;-66
2024/02/13 13:11:27;;;;;;;;;;;18.30;64.90;;;;;;5022050;28;1451;-68
2024/02/13 13:13:54;;;;;;;;;;;18.30;65.00;;;;;;5022631;28;1348;-65
2024/02/13 13:16:23;;;;;;;;;;;18.30;65.00;;;;;;5020718;28;1327;-69
2024/02/13 13:18:50;;;;;;;;;;;18.30;65.00;;;;;;5019252;28;1241;-70
2024/02/13 13:21:16;;;;;;;;;;;18.30;65.00;;;;;;5021114;28;1910;-67
2024/02/13 13:23:41;;;;;;;;;;;18.30;65.10;;;;;;5019384;28;944;-68
2024/02/13 13:26:08;;;;;;;;;;;18.30;65.10;;;;;;5021233;28;1591;-67
2024/02/13 13:28:33;;;;;;;;;;;18.30;65.10;;;;;;5022074;28;1402;-67
2024/02/13 13:31:00;;;;;;;;;;;18.20;65.00;;;;;;5020861;28;1396;-67
2024/02/13 13:33:32;;;;;;;;;;;18.20;65.00;;;;;;5019270;28;958;-69
2024/02/13 13:35:59;;;;;;;;;;;18.20;65.10;;;;;;5019762;28;1021;-68
2024/02/13 13:38:25;;;;;;;;;;;18.20;65.00;;;;;;5018009;28;1363;-67
2024/02/13 13:40:50;;;;;;;;;;;18.20;65.10;;;;;;5021935;28;1969;-67
2024/02/13 13:43:16;;;;;;;;;;;18.30;65.10;;;;;;5019801;28;1583;-68
2024/02/13 13:45:52;;;;;;;;;;;18.30;65.10;;;;;;5022119;28;1542;-69
2024/02/13 13:48:19;;;;;;;;;;;18.30;65.00;;;;;;5023893;28;1302;-68
2024/02/13 13:50:44;;;;;;;;;;;18.30;65.00;;;;;;5019392;28;1482;-67
2024/02/13 13:53:10;;;;;;;;;;;18.30;65.00;;;;;;5017910;28;1502;-67
2024/02/13 13:55:35;;;;;;;;;;;18.30;64.90;;;;;;5022316;28;1294;-66
2024/02/13 13:58:01;;;;;;;;;;;18.30;64.90;;;;;;5024229;28;1342;-66
2024/02/13 14:00:30;;;;;;;;;;;18.30;64.90;;;;;;5022327;28;1898;-67
2024/02/13 14:02:55;;;;;;;;;;;18.30;64.90;;;;;;5023709;28;1459;-70
2024/02/13 14:05:23;;;;;;;;;;;18.30;64.80;;;;;;5010941;28;1176;-67
2024/02/13 14:07:49;;;;;;;;;;;18.30;64.80;;;;;;5022105;28;1188;-70
2024/02/13 14:10:16;;;;;;;;;;;18.30;64.80;;;;;;5023362;28;1374;-69
2024/02/13 14:12:45;;;;;;;;;;;18.40;64.90;;;;;;5019724;28;1246;-67
2024/02/13 14:15:11;;;;;;;;;;;18.30;64.80;;;;;;5020392;28;1229;-70
2024/02/13 14:17:36;;;;;;;;;;;18.30;64.80;;;;;;5019070;28;1253;-67
2024/02/13 14:20:05;;;;;;;;;;;18.30;64.80;;;;;;5022471;28;1898;-66
2024/02/13 14:22:32;;;;;;;;;;;18.30;64.80;;;;;;5021405;28;1445;-66
2024/02/13 14:24:57;;;;;;;;;;;18.30;64.70;;;;;;5026699;28;1254;-67
2024/02/13 14:27:23;;;;;;;;;;;18.30;64.70;;;;;;5023461;28;1389;-69
2024/02/13 14:29:48;;;;;;;;;;;18.30;64.70;;;;;;5019320;28;1376;-64